Time;durP1;ratioP1;P1;durP2;ratioP2;P2;SDS_P1;SDS_P2;PMS_P1;PMS_P2;Temp;Humidity;BMP_temperature;BMP_pressure;BME280_temperature;BME280_humidity;BME280_pressure;Samples;Min_cycle;Max_cycle;Signal;HPM_P1;HPM_P2
2021/12/12 00:00:29;;;;;;;19.23;8.93;;;;;;;-141.66;100.00;58987.19;5127285;27;20155;-74
2021/12/12 00:03:00;;;;;;;23.57;11.43;;;;;;;-141.66;100.00;58987.19;5128563;27;20044;-74
2021/12/12 00:05:33;;;;;;;27.27;12.30;;;;;;;-141.66;100.00;58987.19;5128062;27;20035;-74
2021/12/12 00:08:00;;;;;;;24.35;12.20;;;;;;;-141.66;100.00;58987.19;5129746;27;20185;-74
2021/12/12 00:10:29;;;;;;;25.20;12.77;;;;;;;-141.66;100.00;58987.19;5127955;27;20047;-75
2021/12/12 00:13:05;;;;;;;28.57;14.07;;;;;;;-141.66;100.00;58987.19;5109630;27;20054;-75
2021/12/12 00:15:34;;;;;;;24.97;11.57;;;;;;;-141.66;100.00;58987.19;5128921;27;20062;-75
2021/12/12 00:18:02;;;;;;;26.43;12.27;;;;;;;-141.66;100.00;58987.19;5128958;27;20047;-75
2021/12/12 00:20:33;;;;;;;29.63;13.47;;;;;;;-141.66;100.00;58987.19;5128072;27;20138;-75
2021/12/12 00:23:01;;;;;;;31.37;13.30;;;;;;;-141.66;100.00;58987.19;5110308;27;20130;-75
2021/12/12 00:25:42;;;;;;;28.77;13.90;;;;;;;-141.66;100.00;58987.19;5128366;27;20062;-75
2021/12/12 00:28:11;;;;;;;31.90;14.30;;;;;;;-141.66;100.00;58987.19;5128194;28;20045;-75
2021/12/12 00:30:38;;;;;;;25.90;11.87;;;;;;;-141.66;100.00;58987.19;5128253;28;20388;-75
2021/12/12 00:33:06;;;;;;;27.37;13.67;;;;;;;-141.66;100.00;58987.19;5127414;28;20550;-76
2021/12/12 00:35:34;;;;;;;22.30;11.20;;;;;;;-141.66;100.00;58987.19;5127648;28;20096;-75
2021/12/12 00:38:06;;;;;;;21.33;11.40;;;;;;;-141.66;100.00;58987.19;5128195;28;20053;-74
2021/12/12 00:40:37;;;;;;;22.83;11.73;;;;;;;-141.66;100.00;58987.19;5126065;28;20043;-75
2021/12/12 00:43:07;;;;;;;26.53;12.17;;;;;;;-141.66;100.00;58987.19;5127998;28;20085;-74
2021/12/12 00:45:35;;;;;;;22.97;12.10;;;;;;;-141.66;100.00;58987.19;5127292;28;20070;-75
2021/12/12 00:48:02;;;;;;;23.67;12.03;;;;;;;-141.66;100.00;58987.19;5127142;28;20058;-74
2021/12/12 00:50:32;;;;;;;21.17;12.10;;;;;;;-141.66;100.00;58987.19;5128409;28;20499;-74
2021/12/12 00:53:02;;;;;;;24.03;12.70;;;;;;;-141.66;100.00;58987.19;5128347;28;20035;-74
2021/12/12 00:55:30;;;;;;;22.60;9.73;;;;;;;-141.66;100.00;58987.19;5128153;28;20035;-75
2021/12/12 00:57:57;;;;;;;21.20;12.07;;;;;;;-141.66;100.00;58987.19;5128447;28;20137;-75
2021/12/12 01:00:29;;;;;;;18.97;10.73;;;;;;;-141.66;100.00;58987.19;5127064;28;20111;-74
2021/12/12 01:02:57;;;;;;;23.80;11.60;;;;;;;-141.66;100.00;58987.19;5127516;28;20047;-74
2021/12/12 01:05:26;;;;;;;25.07;12.83;;;;;;;-141.66;100.00;58987.19;5128777;27;20043;-74
2021/12/12 01:07:53;;;;;;;24.40;11.53;;;;;;;-141.66;100.00;58987.19;5131932;27;20040;-75
2021/12/12 01:10:25;;;;;;;19.97;9.97;;;;;;;-141.66;100.00;58987.19;5131604;27;20513;-75
2021/12/12 01:12:58;;;;;;;20.63;10.83;;;;;;;-141.66;100.00;58987.19;5131477;27;20051;-75
2021/12/12 01:15:31;;;;;;;21.63;10.67;;;;;;;-141.66;100.00;58987.19;5114027;27;20647;-75
2021/12/12 01:18:03;;;;;;;19.73;10.17;;;;;;;-141.66;100.00;58987.19;5130386;27;20074;-75
2021/12/12 01:20:38;;;;;;;21.53;10.97;;;;;;;-141.66;100.00;58987.19;5131981;27;20080;-75
2021/12/12 01:23:13;;;;;;;21.07;10.63;;;;;;;-141.66;100.00;58987.19;5132390;27;20047;-75
2021/12/12 01:25:47;;;;;;;22.67;11.43;;;;;;;-141.66;100.00;58987.19;5131852;27;20142;-75
2021/12/12 01:28:16;;;;;;;21.13;10.40;;;;;;;-141.66;100.00;58987.19;5131878;27;20518;-75
2021/12/12 01:30:44;;;;;;;19.00;10.03;;;;;;;-141.66;100.00;58987.19;5130767;27;20039;-75
2021/12/12 01:33:20;;;;;;;20.73;12.07;;;;;;;-141.66;100.00;58987.19;5132292;27;20039;-75
2021/12/12 01:35:47;;;;;;;24.13;11.20;;;;;;;-141.66;100.00;58987.19;5131443;27;20039;-75
2021/12/12 01:41:03;;;;;;;14.67;9.17;;;;;;;-141.66;100.00;58987.19;5130655;27;20130;-74
2021/12/12 01:43:39;;;;;;;26.07;11.23;;;;;;;-141.66;100.00;58987.19;5131677;27;20043;-73
2021/12/12 01:46:12;;;;;;;21.63;10.57;;;;;;;-141.66;100.00;58987.19;5131528;27;20062;-74
2021/12/12 01:48:45;;;;;;;24.80;12.43;;;;;;;-141.66;100.00;58987.19;5131443;27;20096;-75
2021/12/12 01:59:42;;;;;;;17.27;8.97;;;;;;;-141.66;100.00;58987.19;5090618;22;21544;-70
2021/12/12 02:02:14;;;;;;;19.50;9.93;;;;;;;-141.66;100.00;58987.19;5013564;28;20053;-69
2021/12/12 02:04:46;;;;;;;20.53;10.13;;;;;;;-141.66;100.00;58987.19;5031180;28;20483;-70
2021/12/12 02:07:16;;;;;;;18.13;10.17;;;;;;;-141.66;100.00;58987.19;5031210;28;20055;-70
2021/12/12 02:09:44;;;;;;;18.73;9.20;;;;;;;-141.66;100.00;58987.19;5021835;28;20076;-70
2021/12/12 02:12:12;;;;;;;17.17;9.57;;;;;;;-141.66;100.00;58987.19;5032379;28;20491;-70
2021/12/12 02:14:42;;;;;;;16.47;8.83;;;;;;;-141.66;100.00;58987.19;5026039;28;20041;-70
2021/12/12 02:17:18;;;;;;;16.53;9.20;;;;;;;-141.66;100.00;58987.19;5031225;28;20497;-68
2021/12/12 02:20:01;;;;;;;17.37;9.23;;;;;;;-141.66;100.00;58987.19;5007646;28;20045;-69
2021/12/12 02:22:45;;;;;;;18.10;9.73;;;;;;;-141.66;100.00;58987.19;5031338;28;20045;-69
2021/12/12 02:36:17;;;;;;;16.40;8.93;;;;;;;-141.66;100.00;58987.19;5030283;28;20091;-69
2021/12/12 02:38:48;;;;;;;17.87;9.33;;;;;;;-141.66;100.00;58987.19;5031170;28;20072;-70
2021/12/12 02:41:19;;;;;;;19.00;9.37;;;;;;;-141.66;100.00;58987.19;5017717;28;20239;-70
2021/12/12 02:43:49;;;;;;;19.83;9.47;;;;;;;-141.66;100.00;58987.19;5021666;28;20045;-71
2021/12/12 02:46:19;;;;;;;23.93;10.37;;;;;;;-141.66;100.00;58987.19;5031430;28;20073;-71
2021/12/12 02:48:48;;;;;;;22.80;9.03;;;;;;;-141.66;100.00;58987.19;5030329;28;20375;-71
2021/12/12 02:51:18;;;;;;;22.47;10.67;;;;;;;-141.66;100.00;58987.19;5031128;28;20099;-70
2021/12/12 02:53:52;;;;;;;17.87;9.83;;;;;;;-141.66;100.00;58987.19;5031935;28;20044;-71
2021/12/12 02:56:25;;;;;;;19.37;9.43;;;;;;;-141.66;100.00;58987.19;5031735;28;20045;-72
2021/12/12 02:58:53;;;;;;;22.03;10.93;;;;;;;-141.66;100.00;58987.19;5030515;28;20507;-72
2021/12/12 03:01:25;;;;;;;18.53;9.57;;;;;;;-141.66;100.00;58987.19;5021757;28;20061;-72
2021/12/12 03:03:54;;;;;;;20.33;9.98;;;;;;;-141.66;100.00;58987.19;5031517;28;20490;-72
2021/12/12 03:06:25;;;;;;;15.53;7.57;;;;;;;-141.66;100.00;58987.19;5031287;28;20498;-72
2021/12/12 03:09:00;;;;;;;14.83;8.30;;;;;;;-141.66;100.00;58987.19;5031430;28;20037;-72
2021/12/12 03:11:28;;;;;;;18.53;8.67;;;;;;;-141.66;100.00;58987.19;5023058;28;20068;-73
2021/12/12 03:13:55;;;;;;;16.20;8.07;;;;;;;-141.66;100.00;58987.19;5031005;28;20487;-73
2021/12/12 03:16:22;;;;;;;17.87;8.03;;;;;;;-141.66;100.00;58987.19;5016987;28;20041;-73
2021/12/12 03:18:50;;;;;;;22.50;8.57;;;;;;;-141.66;100.00;58987.19;5023365;28;20142;-73
2021/12/12 03:21:28;;;;;;;18.90;10.17;;;;;;;-141.66;100.00;58987.19;5007785;28;20041;-73
2021/12/12 03:24:00;;;;;;;19.77;9.37;;;;;;;-141.66;100.00;58987.19;5029995;28;20116;-74
2021/12/12 03:26:27;;;;;;;22.10;12.10;;;;;;;-141.66;100.00;58987.19;5021220;28;20057;-73
2021/12/12 03:28:57;;;;;;;21.03;8.97;;;;;;;-141.66;100.00;58987.19;5030289;28;20076;-73
2021/12/12 03:31:28;;;;;;;18.87;9.83;;;;;;;-141.66;100.00;58987.19;5030678;28;20561;-73
2021/12/12 03:33:56;;;;;;;22.13;11.23;;;;;;;-141.66;100.00;58987.19;5028698;28;20045;-73
2021/12/12 03:36:23;;;;;;;16.13;8.43;;;;;;;-141.66;100.00;58987.19;5029501;28;20489;-73
2021/12/12 03:38:55;;;;;;;18.23;8.30;;;;;;;-141.66;100.00;58987.19;5019746;28;20557;-71
2021/12/12 03:41:27;;;;;;;21.90;9.67;;;;;;;-141.66;100.00;58987.19;5021466;28;20045;-71
2021/12/12 03:43:57;;;;;;;20.90;11.10;;;;;;;-141.66;100.00;58987.19;5029029;28;20041;-72
2021/12/12 03:46:24;;;;;;;20.10;9.80;;;;;;;-141.66;100.00;58987.19;5018884;28;20037;-72
2021/12/12 03:48:52;;;;;;;18.87;10.10;;;;;;;-141.66;100.00;58987.19;5030080;28;20764;-71
2021/12/12 03:51:22;;;;;;;15.60;9.63;;;;;;;-141.66;100.00;58987.19;5030142;28;20048;-71
2021/12/12 03:53:50;;;;;;;18.43;10.10;;;;;;;-141.66;100.00;58987.19;5000487;28;20077;-71
2021/12/12 03:56:18;;;;;;;19.47;10.07;;;;;;;-141.66;100.00;58987.19;5023360;28;20053;-73
2021/12/12 03:58:48;;;;;;;17.17;9.13;;;;;;;-141.66;100.00;58987.19;5024065;28;20037;-71
2021/12/12 04:01:21;;;;;;;18.83;8.80;;;;;;;-141.66;100.00;58987.19;5029456;28;20056;-71
2021/12/12 04:03:50;;;;;;;17.95;9.98;;;;;;;-141.66;100.00;58987.19;5030577;28;20052;-71
2021/12/12 04:06:21;;;;;;;18.93;8.97;;;;;;;-141.66;100.00;58987.19;5029530;28;20080;-72
2021/12/12 04:08:50;;;;;;;24.33;11.77;;;;;;;-141.66;100.00;58987.19;5028999;28;20072;-73
2021/12/12 04:11:20;;;;;;;23.30;12.50;;;;;;;-141.66;100.00;58987.19;5030237;28;20052;-73
2021/12/12 04:13:53;;;;;;;22.17;10.87;;;;;;;-141.66;100.00;58987.19;5021601;28;20156;-73
2021/12/12 04:16:21;;;;;;;25.17;12.00;;;;;;;-141.66;100.00;58987.19;5030386;28;20053;-72
2021/12/12 04:18:48;;;;;;;23.90;11.70;;;;;;;-141.66;100.00;58987.19;5030452;28;20061;-72
2021/12/12 04:21:19;;;;;;;24.93;12.80;;;;;;;-141.66;100.00;58987.19;5006280;28;20045;-74
2021/12/12 04:23:46;;;;;;;22.67;11.17;;;;;;;-141.66;100.00;58987.19;5032037;28;20128;-74
2021/12/12 04:26:21;;;;;;;21.07;10.73;;;;;;;-141.66;100.00;58987.19;5032676;28;20045;-74
2021/12/12 04:28:59;;;;;;;23.40;11.47;;;;;;;-141.66;100.00;58987.19;5032015;28;20128;-74
2021/12/12 04:31:26;;;;;;;23.17;11.60;;;;;;;-141.66;100.00;58987.19;5030678;28;20132;-75
2021/12/12 04:33:54;;;;;;;24.10;10.80;;;;;;;-141.66;100.00;58987.19;5028699;28;20045;-75
2021/12/12 04:36:26;;;;;;;21.00;9.60;;;;;;;-141.66;100.00;58987.19;5020165;28;20041;-76
2021/12/12 04:38:59;;;;;;;23.33;10.50;;;;;;;-141.66;100.00;58987.19;5029177;28;20148;-76
2021/12/12 04:41:26;;;;;;;;;;;;;;;-141.66;100.00;58987.19;5032186;28;20053;-77
2021/12/12 04:43:53;;;;;;;18.93;9.50;;;;;;;-141.66;100.00;58987.19;5033981;28;19925;-76
2021/12/12 04:46:25;;;;;;;18.90;9.50;;;;;;;-141.66;100.00;58987.19;5032593;28;20050;-75
2021/12/12 04:51:44;;;;;;;21.17;9.93;;;;;;;-141.66;100.00;58987.19;5033391;28;20041;-75
2021/12/12 04:54:20;;;;;;;17.00;8.90;;;;;;;-141.66;100.00;58987.19;5033796;28;20501;-75
2021/12/12 04:56:54;;;;;;;21.83;10.40;;;;;;;-141.66;100.00;58987.19;5032239;28;20048;-75
2021/12/12 04:59:26;;;;;;;25.60;12.03;;;;;;;-141.66;100.00;58987.19;5031809;28;20137;-75
2021/12/12 05:02:02;;;;;;;23.23;10.57;;;;;;;-141.66;100.00;58987.19;5032082;28;20059;-75
2021/12/12 05:04:36;;;;;;;23.70;13.37;;;;;;;-141.66;100.00;58987.19;5031866;28;20041;-75
2021/12/12 05:07:09;;;;;;;21.17;10.93;;;;;;;-141.66;100.00;58987.19;5032114;28;20112;-75
2021/12/12 05:09:46;;;;;;;20.88;10.63;;;;;;;-141.66;100.00;58987.19;5033749;28;20052;-73
2021/12/12 05:12:19;;;;;;;19.60;9.70;;;;;;;-141.66;100.00;58987.19;5032671;28;20046;-71
2021/12/12 05:14:58;;;;;;;18.23;8.57;;;;;;;-141.66;100.00;58987.19;5031915;28;20041;-70
2021/12/12 05:17:31;;;;;;;20.23;10.03;;;;;;;-141.66;100.00;58987.19;5032241;28;20037;-69
2021/12/12 05:20:00;;;;;;;;;;;;;;;-141.66;100.00;58987.19;5032518;28;20038;-69
2021/12/12 05:22:33;;;;;;;18.73;9.07;;;;;;;-141.66;100.00;58987.19;5031938;28;20119;-69
2021/12/12 05:25:05;;;;;;;14.80;8.00;;;;;;;-141.66;100.00;58987.19;5032197;28;20041;-68
2021/12/12 05:27:34;;;;;;;12.83;7.70;;;;;;;-141.66;100.00;58987.19;5022828;28;20053;-68
2021/12/12 05:30:05;;;;;;;20.00;9.60;;;;;;;-141.66;100.00;58987.19;5032200;28;20505;-69
2021/12/12 05:32:36;;;;;;;14.10;8.70;;;;;;;-141.66;100.00;58987.19;5031706;28;20045;-69
2021/12/12 05:35:05;;;;;;;17.10;8.40;;;;;;;-141.66;100.00;58987.19;5031992;28;20045;-67
2021/12/12 05:37:33;;;;;;;18.13;8.80;;;;;;;-141.66;100.00;58987.19;5031417;28;20387;-69
2021/12/12 05:40:04;;;;;;;18.33;9.03;;;;;;;-141.66;100.00;58987.19;5031704;28;20044;-68
2021/12/12 05:42:32;;;;;;;17.00;8.13;;;;;;;-141.66;100.00;58987.19;5031783;28;20117;-68
2021/12/12 05:45:00;;;;;;;16.57;9.77;;;;;;;-141.66;100.00;58987.19;5024336;28;20055;-69
2021/12/12 05:47:28;;;;;;;18.83;9.23;;;;;;;-141.66;100.00;58987.19;5031264;28;20486;-68
2021/12/12 05:50:00;;;;;;;19.07;9.40;;;;;;;-141.66;100.00;58987.19;5026504;28;20099;-68
2021/12/12 05:52:27;;;;;;;19.57;9.17;;;;;;;-141.66;100.00;58987.19;5031208;28;20042;-68
2021/12/12 05:54:54;;;;;;;16.73;9.50;;;;;;;-141.66;100.00;58987.19;5031603;28;20049;-68
2021/12/12 05:57:26;;;;;;;20.87;9.77;;;;;;;-141.66;100.00;58987.19;5031678;28;20041;-68
2021/12/12 05:59:54;;;;;;;19.07;9.67;;;;;;;-141.66;100.00;58987.19;5031859;28;20065;-67
2021/12/12 06:02:23;;;;;;;19.77;10.07;;;;;;;-141.66;100.00;58987.19;5023043;28;20037;-68
2021/12/12 06:04:50;;;;;;;20.40;9.60;;;;;;;-141.66;100.00;58987.19;5032421;28;20502;-68
2021/12/12 06:07:20;;;;;;;20.70;10.33;;;;;;;-141.66;100.00;58987.19;5031892;28;20462;-68
2021/12/12 06:09:49;;;;;;;22.17;11.37;;;;;;;-141.66;100.00;58987.19;5031999;28;20045;-68
2021/12/12 06:12:17;;;;;;;23.67;11.00;;;;;;;-141.66;100.00;58987.19;5024037;28;20055;-68
2021/12/12 06:14:46;;;;;;;20.63;9.37;;;;;;;-141.66;100.00;58987.19;5031439;28;20044;-68
2021/12/12 06:17:17;;;;;;;19.17;9.10;;;;;;;-141.66;100.00;58987.19;5032087;28;20048;-68
2021/12/12 06:19:48;;;;;;;21.80;9.10;;;;;;;-141.66;100.00;58987.19;5032244;28;20488;-69
2021/12/12 06:22:15;;;;;;;20.53;9.57;;;;;;;-141.66;100.00;58987.19;5024796;28;20833;-68
2021/12/12 06:24:44;;;;;;;21.33;11.50;;;;;;;-141.66;100.00;58987.19;5032078;28;20083;-68
2021/12/12 06:27:14;;;;;;;17.17;7.77;;;;;;;-141.66;100.00;58987.19;5031902;28;20041;-69
2021/12/12 06:29:42;;;;;;;17.77;8.43;;;;;;;-141.66;100.00;58987.19;5031417;28;20537;-68
2021/12/12 06:32:10;;;;;;;17.67;9.50;;;;;;;-141.66;100.00;58987.19;5031904;28;20429;-68
2021/12/12 06:34:37;;;;;;;18.03;9.00;;;;;;;-141.66;100.00;58987.19;5031183;28;20379;-68
2021/12/12 06:37:05;;;;;;;15.67;9.17;;;;;;;-141.66;100.00;58987.19;5031476;28;20045;-68
2021/12/12 06:39:33;;;;;;;22.23;9.43;;;;;;;-141.66;100.00;58987.19;5031406;28;20467;-68
2021/12/12 06:42:04;;;;;;;14.60;6.80;;;;;;;-141.66;100.00;58987.19;5031395;28;20037;-67
2021/12/12 06:44:31;;;;;;;17.77;7.47;;;;;;;-141.66;100.00;58987.19;5031403;28;20077;-69
2021/12/12 06:46:59;;;;;;;14.47;7.30;;;;;;;-141.66;100.00;58987.19;5031618;28;20052;-68
2021/12/12 06:49:26;;;;;;;11.07;6.30;;;;;;;-141.66;100.00;58987.19;5031311;28;20045;-68
2021/12/12 06:51:56;;;;;;;15.90;7.77;;;;;;;-141.66;100.00;58987.19;5031733;28;20407;-69
2021/12/12 06:54:27;;;;;;;13.67;6.60;;;;;;;-141.66;100.00;58987.19;5031199;28;20482;-68
2021/12/12 06:56:57;;;;;;;15.80;7.37;;;;;;;-141.66;100.00;58987.19;5031296;28;20077;-68
2021/12/12 06:59:30;;;;;;;15.23;8.23;;;;;;;-141.66;100.00;58987.19;5031397;28;20049;-67
2021/12/12 07:01:58;;;;;;;13.90;6.88;;;;;;;-141.66;100.00;58987.19;5030245;28;20072;-67
2021/12/12 07:04:27;;;;;;;15.07;7.63;;;;;;;-141.66;100.00;58987.19;5031188;28;20542;-67
2021/12/12 07:06:58;;;;;;;16.23;8.37;;;;;;;-141.66;100.00;58987.19;5031580;28;20045;-68
2021/12/12 07:09:27;;;;;;;12.20;6.37;;;;;;;-141.66;100.00;58987.19;5031341;28;20050;-67
2021/12/12 07:11:54;;;;;;;12.63;6.93;;;;;;;-141.66;100.00;58987.19;5031208;28;20053;-67
2021/12/12 07:14:21;;;;;;;14.60;7.27;;;;;;;-141.66;100.00;58987.19;5030776;28;20044;-68
2021/12/12 07:16:50;;;;;;;14.40;7.23;;;;;;;-141.66;100.00;58987.19;5031452;28;20072;-67
2021/12/12 07:19:18;;;;;;;12.63;6.60;;;;;;;-141.66;100.00;58987.19;5030689;28;20052;-69
2021/12/12 07:21:46;;;;;;;10.47;5.93;;;;;;;-141.66;100.00;58987.19;5031529;28;20033;-66
2021/12/12 07:24:15;;;;;;;8.83;5.33;;;;;;;-141.66;100.00;58987.19;5031122;28;20107;-66
2021/12/12 07:26:43;;;;;;;12.63;6.37;;;;;;;-141.66;100.00;58987.19;5031059;28;20133;-65
2021/12/12 07:29:10;;;;;;;12.77;5.77;;;;;;;-141.66;100.00;58987.19;5030718;28;20077;-66
2021/12/12 07:31:40;;;;;;;11.53;5.53;;;;;;;-141.66;100.00;58987.19;5030788;28;20037;-67
2021/12/12 07:34:14;;;;;;;10.50;5.37;;;;;;;-141.66;100.00;58987.19;5030726;28;20405;-67
2021/12/12 07:36:44;;;;;;;11.77;6.23;;;;;;;-141.66;100.00;58987.19;5030446;28;20120;-66
2021/12/12 07:39:14;;;;;;;12.33;5.40;;;;;;;-141.66;100.00;58987.19;5030994;28;20037;-66
2021/12/12 07:41:42;;;;;;;13.00;6.90;;;;;;;-141.66;100.00;58987.19;5030440;28;20124;-66
2021/12/12 07:44:12;;;;;;;10.57;5.97;;;;;;;-141.66;100.00;58987.19;5030708;28;20053;-66
2021/12/12 07:46:40;;;;;;;11.70;6.57;;;;;;;-141.66;100.00;58987.19;5030283;28;20033;-65
2021/12/12 07:49:09;;;;;;;10.43;5.60;;;;;;;-141.66;100.00;58987.19;5029446;28;20079;-67
2021/12/12 07:51:39;;;;;;;14.63;6.80;;;;;;;-141.66;100.00;58987.19;5030572;28;20047;-67
2021/12/12 07:54:08;;;;;;;13.67;7.73;;;;;;;-141.66;100.00;58987.19;5031053;28;20517;-66
2021/12/12 07:56:38;;;;;;;14.43;5.90;;;;;;;-141.66;100.00;58987.19;5030464;28;20048;-67
2021/12/12 07:59:07;;;;;;;10.73;5.50;;;;;;;-141.66;100.00;58987.19;5029184;28;20057;-67
2021/12/12 08:01:36;;;;;;;14.23;7.53;;;;;;;-141.66;100.00;58987.19;5029908;28;20128;-69
2021/12/12 08:04:05;;;;;;;13.90;7.03;;;;;;;-141.66;100.00;58987.19;5031400;28;20104;-67
2021/12/12 08:06:33;;;;;;;15.57;6.63;;;;;;;-141.66;100.00;58987.19;5029903;28;20120;-65
2021/12/12 08:09:02;;;;;;;13.53;6.57;;;;;;;-141.66;100.00;58987.19;5023009;28;20054;-65
2021/12/12 08:11:33;;;;;;;16.70;8.13;;;;;;;-141.66;100.00;58987.19;5030859;28;20128;-69
2021/12/12 08:14:02;;;;;;;15.40;7.03;;;;;;;-141.66;100.00;58987.19;5020437;28;20099;-68
2021/12/12 08:16:29;;;;;;;16.83;7.37;;;;;;;-141.66;100.00;58987.19;5029854;28;20099;-67
2021/12/12 08:18:58;;;;;;;11.90;6.77;;;;;;;-141.66;100.00;58987.19;5030893;28;20111;-66
2021/12/12 08:21:26;;;;;;;14.47;6.77;;;;;;;-141.66;100.00;58987.19;5001794;28;20577;-67
2021/12/12 08:23:56;;;;;;;12.93;6.63;;;;;;;-141.66;100.00;58987.19;5029621;28;20041;-72
2021/12/12 08:26:24;;;;;;;14.07;7.53;;;;;;;-141.66;100.00;58987.19;5029201;28;20053;-65
2021/12/12 08:28:51;;;;;;;13.60;6.77;;;;;;;-141.66;100.00;58987.19;5029669;28;20052;-67
2021/12/12 08:31:19;;;;;;;14.63;6.47;;;;;;;-141.66;100.00;58987.19;5028728;28;20038;-65
2021/12/12 08:33:46;;;;;;;11.17;5.37;;;;;;;-141.66;100.00;58987.19;5027759;28;20144;-67
2021/12/12 08:36:16;;;;;;;13.43;7.00;;;;;;;-141.66;100.00;58987.19;5029371;28;20069;-67
2021/12/12 08:38:43;;;;;;;12.50;6.67;;;;;;;-141.66;100.00;58987.19;5028105;28;20132;-68
2021/12/12 08:41:11;;;;;;;15.10;7.63;;;;;;;-141.66;100.00;58987.19;5029022;28;20378;-68
2021/12/12 08:43:40;;;;;;;11.87;5.87;;;;;;;-141.66;100.00;58987.19;5028919;28;20110;-67
2021/12/12 08:46:09;;;;;;;11.87;5.77;;;;;;;-141.66;100.00;58987.19;5028823;28;20041;-67
2021/12/12 08:48:40;;;;;;;14.77;7.03;;;;;;;-141.66;100.00;58987.19;5027067;28;20425;-68
2021/12/12 08:51:12;;;;;;;13.77;6.00;;;;;;;-141.66;100.00;58987.19;5029008;28;20034;-67
2021/12/12 08:53:41;;;;;;;13.17;6.03;;;;;;;-141.66;100.00;58987.19;5028461;28;20042;-67
2021/12/12 08:56:17;;;;;;;11.07;5.53;;;;;;;-141.66;100.00;58987.19;5028991;28;20041;-68
2021/12/12 08:58:46;;;;;;;6.07;3.93;;;;;;;-141.66;100.00;58987.19;5029122;28;20037;-67
2021/12/12 09:01:16;;;;;;;8.50;4.30;;;;;;;-141.66;100.00;58987.19;5029293;28;20128;-67
2021/12/12 09:03:46;;;;;;;10.33;5.03;;;;;;;-141.66;100.00;58987.19;5030565;28;20049;-67
2021/12/12 09:06:17;;;;;;;7.43;4.43;;;;;;;-141.66;100.00;58987.19;5030667;28;20139;-70
2021/12/12 09:08:50;;;;;;;7.47;4.00;;;;;;;-141.66;100.00;58987.19;5029200;28;20390;-68
2021/12/12 09:11:30;;;;;;;13.38;5.20;;;;;;;-141.66;100.00;58987.19;5027369;28;20041;-68
2021/12/12 09:14:03;;;;;;;7.93;3.97;;;;;;;-141.66;100.00;58987.19;5027994;28;20592;-68
2021/12/12 09:16:37;;;;;;;7.60;4.13;;;;;;;-141.66;100.00;58987.19;5028800;28;20045;-68
2021/12/12 09:19:09;;;;;;;8.17;4.83;;;;;;;-141.66;100.00;58987.19;5028466;28;20084;-68
2021/12/12 09:21:49;;;;;;;7.97;3.97;;;;;;;-141.66;100.00;58987.19;5028577;28;20036;-67
2021/12/12 09:24:27;;;;;;;7.80;4.53;;;;;;;-141.66;100.00;58987.19;5028511;28;20048;-69
2021/12/12 09:26:58;;;;;;;4.93;3.33;;;;;;;-141.66;100.00;58987.19;5029984;28;20072;-68
2021/12/12 09:29:33;;;;;;;5.93;4.17;;;;;;;-141.66;100.00;58987.19;5031572;28;20041;-67
2021/12/12 09:32:09;;;;;;;7.23;4.17;;;;;;;-141.66;100.00;58987.19;5033782;28;20651;-67
2021/12/12 09:34:41;;;;;;;6.87;3.03;;;;;;;-141.66;100.00;58987.19;5032565;28;20041;-68
2021/12/12 09:37:12;;;;;;;7.00;3.97;;;;;;;-141.66;100.00;58987.19;5032063;28;20091;-68
2021/12/12 09:39:45;;;;;;;4.00;3.00;;;;;;;-141.66;100.00;58987.19;5031920;28;20133;-66
2021/12/12 09:42:28;;;;;;;5.65;3.67;;;;;;;-141.66;100.00;58987.19;5031647;28;20048;-67
2021/12/12 09:45:39;;;;;;;4.10;2.65;;;;;;;-141.66;100.00;58987.19;5032542;28;20045;-66
2021/12/12 09:51:58;;;;;;;4.77;3.27;;;;;;;-141.66;100.00;58987.19;5032184;28;20034;-66
2021/12/12 09:54:34;;;;;;;6.60;3.03;;;;;;;-141.66;100.00;58987.19;5018044;28;20394;-68
2021/12/12 09:57:07;;;;;;;6.90;3.67;;;;;;;-141.66;100.00;58987.19;5033095;28;20052;-66
2021/12/12 09:59:59;;;;;;;6.60;3.13;;;;;;;-141.66;100.00;58987.19;5031531;28;20119;-66
2021/12/12 10:02:34;;;;;;;7.73;4.10;;;;;;;-141.66;100.00;58987.19;5031648;28;20043;-66
2021/12/12 10:05:25;;;;;;;5.10;3.10;;;;;;;-141.66;100.00;58987.19;5029937;28;20052;-65
2021/12/12 10:07:59;;;;;;;6.23;2.83;;;;;;;-141.66;100.00;58987.19;5029827;28;20088;-66
2021/12/12 10:10:32;;;;;;;6.20;3.70;;;;;;;-141.66;100.00;58987.19;5030243;28;20045;-67
2021/12/12 10:13:07;;;;;;;4.53;2.85;;;;;;;-141.66;100.00;58987.19;5031592;28;20041;-66
2021/12/12 10:15:41;;;;;;;4.80;2.97;;;;;;;-141.66;100.00;58987.19;5031257;28;20041;-66
2021/12/12 10:18:16;;;;;;;4.60;2.83;;;;;;;-141.66;100.00;58987.19;5031376;28;20117;-66
2021/12/12 10:20:50;;;;;;;5.00;3.37;;;;;;;-141.66;100.00;58987.19;5030762;28;20410;-65
2021/12/12 10:23:27;;;;;;;4.37;2.67;;;;;;;-141.66;100.00;58987.19;5014139;28;20502;-66
2021/12/12 10:25:59;;;;;;;4.80;2.90;;;;;;;-141.66;100.00;58987.19;5030760;28;20041;-65
2021/12/12 10:30:13;;;;;;;4.20;2.73;;;;;;;1.31;100.00;97636.38;5053786;27;20176;-66
2021/12/12 10:32:50;;;;;;;5.70;2.83;;;;;;;1.36;100.00;97624.13;5041817;28;20045;-66
2021/12/12 10:35:21;;;;;;;2.83;2.10;;;;;;;1.25;100.00;97621.88;5012194;28;20090;-67
2021/12/12 10:37:54;;;;;;;5.70;2.80;;;;;;;1.31;100.00;97615.66;5049095;28;20037;-65
2021/12/12 10:40:35;;;;;;;5.47;2.67;;;;;;;1.29;100.00;97623.47;5065427;27;20409;-66
2021/12/12 10:43:09;;;;;;;6.10;3.37;;;;;;;1.35;100.00;97635.38;5051503;27;20416;-66
2021/12/12 10:45:44;;;;;;;6.10;3.13;;;;;;;1.34;100.00;97642.28;5055384;27;20125;-66
2021/12/12 10:48:15;;;;;;;4.20;2.60;;;;;;;1.22;100.00;97639.22;5054964;28;20049;-66
2021/12/12 10:50:50;;;;;;;4.93;3.20;;;;;;;1.48;100.00;97639.25;5043311;27;20064;-66
2021/12/12 10:53:25;;;;;;;4.53;2.73;;;;;;;1.59;100.00;97643.22;5043818;28;20569;-70
2021/12/12 10:55:59;;;;;;;4.87;2.83;;;;;;;1.48;100.00;97642.72;5018250;28;20552;-66
2021/12/12 10:58:29;;;;;;;6.17;2.53;;;;;;;1.56;100.00;97637.31;5054981;27;20040;-67
2021/12/12 11:01:01;;;;;;;4.10;3.00;;;;;;;1.55;100.00;97645.94;5045723;28;20128;-65
2021/12/12 11:03:34;;;;;;;3.93;2.43;;;;;;;1.61;100.00;97640.56;5047815;28;20044;-67
2021/12/12 11:06:05;;;;;;;4.18;2.90;;;;;;;1.39;100.00;97640.44;5028607;28;20060;-65
2021/12/12 11:08:38;;;;;;;4.43;2.90;;;;;;;1.58;100.00;97626.00;5050520;27;20044;-65
2021/12/12 11:11:12;;;;;;;4.07;2.50;;;;;;;1.54;100.00;97634.75;5053755;27;20488;-67
2021/12/12 11:13:43;;;;;;;4.47;3.00;;;;;;;1.31;100.00;97631.19;5050492;28;20521;-68
2021/12/12 11:16:16;;;;;;;6.13;2.37;;;;;;;1.15;100.00;97632.59;5052200;27;20137;-66
2021/12/12 11:18:48;;;;;;;3.97;2.42;;;;;;;1.09;100.00;97625.00;5048154;27;20455;-68
2021/12/12 11:21:21;;;;;;;4.80;2.50;;;;;;;1.16;100.00;97629.91;5018717;28;20049;-68
2021/12/12 11:23:51;;;;;;;3.60;2.60;;;;;;;1.29;100.00;97622.63;5044614;28;20045;-67
2021/12/12 11:26:22;;;;;;;5.07;2.63;;;;;;;1.13;100.00;97627.44;5045582;27;20880;-66
2021/12/12 11:28:54;;;;;;;4.07;2.37;;;;;;;1.24;100.00;97625.38;5048437;28;20925;-66
2021/12/12 11:31:27;;;;;;;4.18;2.25;;;;;;;1.15;100.00;97628.22;5050535;28;20038;-66
2021/12/12 11:33:55;;;;;;;2.77;2.00;;;;;;;1.18;100.00;97615.22;5040490;27;20055;-69
2021/12/12 11:36:29;;;;;;;2.27;1.70;;;;;;;1.09;100.00;97609.47;5044015;28;20052;-68
2021/12/12 11:39:16;;;;;;;2.27;1.53;;;;;;;1.21;100.00;97620.28;5044836;27;20042;-68
2021/12/12 11:41:55;;;;;;;2.60;1.80;;;;;;;1.13;100.00;97626.59;5027701;28;20590;-66
2021/12/12 11:44:28;;;;;;;2.97;2.00;;;;;;;1.12;100.00;97614.56;5027759;28;20397;-68
2021/12/12 11:47:09;;;;;;;3.10;1.98;;;;;;;1.18;100.00;97604.84;5037901;28;20052;-68
2021/12/12 11:49:52;;;;;;;3.30;1.80;;;;;;;1.10;100.00;97614.59;5039071;27;20049;-64
2021/12/12 11:52:36;;;;;;;4.22;2.45;;;;;;;1.23;100.00;97618.47;5033438;28;20110;-66